createdAt,value
2019-03-06T00:00:27.485Z,0.00
2019-03-06T00:01:27.558Z,0.00
2019-03-06T00:02:27.475Z,0.00
2019-03-06T00:03:27.434Z,0.00
2019-03-06T00:04:27.512Z,0.00
2019-03-06T00:05:27.326Z,0.00
2019-03-06T00:06:27.534Z,0.00
2019-03-06T00:07:27.376Z,0.00
2019-03-06T00:08:27.306Z,0.00
2019-03-06T00:09:27.322Z,0.00
2019-03-06T00:10:27.274Z,0.00
2019-03-06T00:11:27.270Z,0.00
2019-03-06T00:12:27.254Z,0.00
2019-03-06T00:13:27.320Z,0.00
2019-03-06T00:14:27.236Z,0.00
2019-03-06T00:15:27.244Z,0.00
2019-03-06T00:16:27.201Z,0.00
2019-03-06T00:17:27.203Z,0.00
2019-03-06T00:18:27.176Z,0.00
2019-03-06T00:19:27.212Z,0.00
2019-03-06T00:20:27.170Z,0.00
2019-03-06T00:21:27.136Z,0.00
2019-03-06T00:22:27.155Z,0.00
2019-03-06T00:23:27.125Z,0.00
2019-03-06T00:24:27.124Z,0.00
2019-03-06T00:25:27.108Z,0.00
2019-03-06T00:26:27.089Z,0.00
2019-03-06T00:27:27.078Z,0.00
2019-03-06T00:28:27.088Z,0.00
2019-03-06T00:29:27.073Z,0.00
2019-03-06T00:30:27.054Z,0.00
2019-03-06T00:31:27.033Z,0.00
2019-03-06T00:32:27.019Z,0.00
2019-03-06T00:33:27.010Z,0.00
2019-03-06T00:34:27.015Z,0.00
2019-03-06T00:35:26.999Z,0.00
2019-03-06T00:36:27.032Z,0.00
2019-03-06T00:37:26.967Z,0.00
2019-03-06T00:38:26.961Z,0.00
2019-03-06T00:39:26.957Z,0.00
2019-03-06T00:40:26.944Z,0.00
2019-03-06T00:41:26.967Z,0.00
2019-03-06T00:42:26.918Z,0.00
2019-03-06T00:43:26.935Z,0.00
2019-03-06T00:44:26.886Z,0.00
2019-03-06T00:45:26.920Z,0.00
2019-03-06T00:46:26.884Z,0.00
2019-03-06T00:47:26.866Z,0.00
2019-03-06T00:48:26.898Z,0.00
2019-03-06T00:49:26.831Z,0.00
2019-03-06T00:50:26.819Z,0.00
2019-03-06T00:51:26.820Z,0.00
2019-03-06T00:52:26.807Z,0.00
2019-03-06T00:53:26.796Z,0.00
2019-03-06T00:54:26.794Z,0.00
2019-03-06T00:55:26.781Z,0.00
2019-03-06T00:56:26.751Z,0.00
2019-03-06T00:57:26.750Z,0.00
2019-03-06T00:58:26.731Z,0.00
2019-03-06T00:59:26.756Z,0.00
2019-03-06T01:00:26.710Z,0.00
2019-03-06T01:01:26.700Z,0.00
2019-03-06T01:02:26.695Z,0.00
2019-03-06T01:03:26.695Z,0.00
2019-03-06T01:04:26.669Z,0.00
2019-03-06T01:05:26.672Z,0.00
2019-03-06T01:06:26.656Z,0.00
2019-03-06T01:07:26.631Z,0.00
2019-03-06T01:08:26.634Z,0.00
2019-03-06T01:09:26.630Z,0.00
2019-03-06T01:10:26.607Z,0.00
2019-03-06T01:11:26.624Z,0.00
2019-03-06T01:12:26.575Z,0.00
2019-03-06T01:13:26.574Z,0.00
2019-03-06T01:14:26.563Z,0.00
2019-03-06T01:15:26.569Z,0.00
2019-03-06T01:16:26.549Z,0.00
2019-03-06T01:17:26.519Z,0.00
2019-03-06T01:18:26.511Z,0.00
2019-03-06T01:19:26.527Z,0.00
2019-03-06T01:20:26.494Z,0.00
2019-03-06T01:21:26.498Z,0.00
2019-03-06T01:22:26.485Z,0.00
2019-03-06T01:23:26.453Z,0.00
2019-03-06T01:24:26.480Z,0.00
2019-03-06T01:25:26.444Z,0.00
2019-03-06T01:26:26.518Z,0.00
2019-03-06T01:27:26.443Z,0.00
2019-03-06T01:28:26.395Z,0.00
2019-03-06T01:29:26.385Z,0.00
2019-03-06T01:30:26.374Z,0.00
2019-03-06T01:31:26.372Z,0.00
2019-03-06T01:32:26.374Z,0.00
2019-03-06T01:33:26.354Z,0.00
2019-03-06T01:34:26.325Z,0.00
2019-03-06T01:35:26.318Z,0.00
2019-03-06T01:36:26.320Z,0.00
2019-03-06T01:37:26.318Z,0.00
2019-03-06T01:38:26.310Z,0.00
2019-03-06T01:39:26.273Z,0.00
2019-03-06T01:40:26.265Z,0.00
2019-03-06T01:41:26.275Z,0.00
2019-03-06T01:42:26.244Z,0.00
2019-03-06T01:43:26.238Z,0.00
2019-03-06T01:44:26.225Z,0.00
2019-03-06T01:45:26.205Z,0.00
2019-03-06T01:46:26.676Z,0.00
2019-03-06T01:47:26.182Z,0.00
2019-03-06T01:48:26.177Z,0.00
2019-03-06T01:49:26.169Z,0.00
2019-03-06T01:50:26.143Z,0.00
2019-03-06T01:51:26.154Z,0.00
2019-03-06T01:52:26.130Z,0.00
2019-03-06T01:53:26.120Z,0.00
2019-03-06T01:54:26.119Z,0.00
2019-03-06T01:55:26.113Z,0.00
2019-03-06T01:56:26.090Z,0.00
2019-03-06T01:57:26.143Z,0.00
2019-03-06T01:58:26.062Z,0.00
2019-03-06T01:59:26.073Z,0.00
2019-03-06T02:00:26.056Z,0.00
2019-03-06T02:01:26.024Z,0.00
2019-03-06T02:02:26.014Z,0.00
2019-03-06T02:03:26.002Z,0.00
2019-03-06T02:04:26.000Z,0.00
2019-03-06T02:05:25.989Z,0.00
2019-03-06T02:06:25.980Z,0.00
2019-03-06T02:07:25.953Z,0.00
2019-03-06T02:08:25.990Z,0.00
2019-03-06T02:09:25.939Z,0.00
2019-03-06T02:10:25.932Z,0.00
2019-03-06T02:11:25.931Z,0.00
2019-03-06T02:12:25.902Z,0.00
2019-03-06T02:13:25.890Z,0.00
2019-03-06T02:14:25.880Z,0.00
2019-03-06T02:15:25.874Z,0.00
2019-03-06T02:16:25.880Z,0.00
2019-03-06T02:17:25.855Z,0.00
2019-03-06T02:18:25.842Z,0.00
2019-03-06T02:19:25.858Z,0.00
2019-03-06T02:20:25.838Z,0.00
2019-03-06T02:21:25.805Z,0.00
2019-03-06T02:22:25.840Z,0.00
2019-03-06T02:23:25.826Z,0.00
2019-03-06T02:24:25.766Z,0.00
2019-03-06T02:25:25.756Z,0.00
2019-03-06T02:26:25.760Z,0.00
2019-03-06T02:27:25.736Z,0.00
2019-03-06T02:28:25.730Z,0.00
2019-03-06T02:29:25.787Z,0.00
2019-03-06T02:30:25.731Z,0.00
2019-03-06T02:31:25.686Z,0.00
2019-03-06T02:32:25.688Z,0.00
2019-03-06T02:33:25.673Z,0.00
2019-03-06T02:34:25.667Z,0.00
2019-03-06T02:35:25.646Z,0.00
2019-03-06T02:36:25.646Z,0.00
2019-03-06T02:37:25.655Z,0.00
2019-03-06T02:38:25.649Z,0.00
2019-03-06T02:39:25.611Z,0.00
2019-03-06T02:40:25.630Z,0.00
2019-03-06T02:41:25.579Z,0.00
2019-03-06T02:42:25.583Z,0.00
2019-03-06T02:43:25.576Z,0.00
2019-03-06T02:44:25.565Z,0.00
2019-03-06T02:45:25.584Z,0.00
2019-03-06T02:46:25.566Z,0.00
2019-03-06T02:47:25.565Z,0.00
2019-03-06T02:48:25.497Z,0.00
2019-03-06T02:49:25.493Z,0.00
2019-03-06T02:50:25.489Z,0.00
2019-03-06T02:51:25.504Z,0.00
2019-03-06T02:52:25.457Z,0.00
2019-03-06T02:53:25.447Z,0.00
2019-03-06T02:54:28.279Z,0.00
2019-03-06T02:55:25.419Z,0.00
2019-03-06T02:56:25.448Z,0.00
2019-03-06T02:57:25.404Z,0.00
2019-03-06T02:58:25.426Z,0.00
2019-03-06T02:59:25.370Z,0.00
2019-03-06T03:00:25.362Z,0.00
2019-03-06T03:01:25.358Z,0.00
2019-03-06T03:02:25.592Z,0.00
2019-03-06T03:03:25.438Z,0.00
2019-03-06T03:04:25.343Z,0.00
2019-03-06T03:05:25.323Z,0.00
2019-03-06T03:06:25.296Z,0.00
2019-03-06T03:07:25.317Z,0.00
2019-03-06T03:08:25.360Z,0.00
2019-03-06T03:09:25.256Z,0.00
2019-03-06T03:10:25.251Z,0.00
2019-03-06T03:11:25.244Z,0.00
2019-03-06T03:12:25.231Z,0.00
2019-03-06T03:13:25.229Z,0.00
2019-03-06T03:14:25.255Z,0.00
2019-03-06T03:15:25.198Z,0.00
2019-03-06T03:16:25.182Z,0.00
2019-03-06T03:17:25.173Z,0.00
2019-03-06T03:18:25.161Z,0.00
2019-03-06T03:19:25.162Z,0.00
2019-03-06T03:20:25.206Z,0.00
2019-03-06T03:21:26.995Z,0.00
2019-03-06T03:22:25.121Z,0.00
2019-03-06T03:23:25.129Z,0.00
2019-03-06T03:24:25.140Z,0.00
2019-03-06T03:25:25.086Z,0.00
2019-03-06T03:26:25.071Z,0.00
2019-03-06T03:27:25.061Z,0.00
2019-03-06T03:28:25.051Z,0.00
2019-03-06T03:29:25.055Z,0.00
2019-03-06T03:30:25.040Z,0.00
2019-03-06T03:31:25.014Z,0.00
2019-03-06T03:32:25.012Z,0.00
2019-03-06T03:33:25.011Z,0.00
2019-03-06T03:34:24.984Z,0.00
2019-03-06T03:35:24.981Z,0.00
2019-03-06T03:36:25.061Z,0.00
2019-03-06T03:37:24.961Z,0.00
2019-03-06T03:38:24.935Z,0.00
2019-03-06T03:39:24.931Z,0.00
2019-03-06T03:41:34.226Z,0.00
2019-03-06T03:42:34.191Z,0.00
2019-03-06T03:43:34.180Z,0.00
2019-03-06T03:44:34.185Z,0.00
2019-03-06T03:45:34.176Z,0.00
2019-03-06T03:46:34.158Z,0.00
2019-03-06T03:47:34.139Z,0.00
2019-03-06T03:48:34.135Z,0.00
2019-03-06T03:49:34.115Z,0.00
2019-03-06T03:50:34.099Z,0.00
2019-03-06T03:51:34.088Z,0.00
2019-03-06T03:52:34.102Z,0.00
2019-03-06T03:53:34.069Z,0.00
2019-03-06T03:54:34.063Z,0.00
2019-03-06T03:55:34.055Z,0.00
2019-03-06T03:56:34.031Z,0.00
2019-03-06T03:57:34.044Z,0.00
2019-03-06T03:58:34.025Z,0.00
2019-03-06T03:59:34.005Z,0.00
2019-03-06T04:00:34.001Z,0.00
2019-03-06T04:01:34.011Z,0.00
2019-03-06T04:02:33.977Z,0.00
2019-03-06T04:03:33.972Z,0.00
2019-03-06T04:04:33.950Z,0.00
2019-03-06T04:05:33.939Z,0.00
2019-03-06T04:06:33.932Z,0.00
2019-03-06T04:07:33.932Z,0.00
2019-03-06T04:08:33.925Z,0.00
2019-03-06T04:09:33.895Z,0.00
2019-03-06T04:10:33.897Z,0.00
2019-03-06T04:11:33.874Z,0.00
2019-03-06T04:12:34.336Z,0.00
2019-03-06T04:13:33.897Z,0.00
2019-03-06T04:14:33.847Z,0.00
2019-03-06T04:15:33.827Z,0.00
2019-03-06T04:16:33.815Z,0.00
2019-03-06T04:17:33.817Z,0.00
2019-03-06T04:18:33.794Z,0.00
2019-03-06T04:19:33.791Z,0.00
2019-03-06T04:20:33.778Z,0.00
2019-03-06T04:21:33.778Z,0.00
2019-03-06T04:22:33.795Z,0.00
2019-03-06T04:23:33.842Z,0.00
2019-03-06T04:24:33.737Z,0.00
2019-03-06T04:25:33.739Z,0.00
2019-03-06T04:26:33.709Z,0.00
2019-03-06T04:27:33.703Z,0.00
2019-03-06T04:28:33.681Z,0.00
2019-03-06T04:29:33.710Z,0.00
2019-03-06T04:30:33.668Z,0.00
2019-03-06T04:31:33.665Z,0.00
2019-03-06T04:32:33.646Z,0.00
2019-03-06T04:33:33.645Z,0.00
2019-03-06T04:34:33.618Z,0.00
2019-03-06T04:35:33.609Z,0.00
2019-03-06T04:36:33.613Z,0.00
2019-03-06T04:37:33.651Z,0.00
2019-03-06T04:38:33.580Z,0.00
2019-03-06T04:39:33.571Z,0.00
2019-03-06T04:40:33.562Z,0.00
2019-03-06T04:41:33.547Z,0.00
2019-03-06T04:42:33.538Z,0.00
2019-03-06T04:43:33.517Z,0.00
2019-03-06T04:44:33.513Z,0.00
2019-03-06T04:45:33.496Z,0.00
2019-03-06T04:46:33.490Z,0.00
2019-03-06T04:47:33.486Z,0.00
2019-03-06T04:48:33.480Z,0.00
2019-03-06T04:49:33.452Z,0.00
2019-03-06T04:50:33.448Z,0.00
2019-03-06T04:51:33.432Z,0.00
2019-03-06T04:52:33.420Z,0.00
2019-03-06T04:53:33.430Z,0.00
2019-03-06T04:54:33.441Z,0.00
2019-03-06T04:55:33.385Z,0.00
2019-03-06T04:56:33.380Z,0.00
2019-03-06T04:57:33.367Z,0.00
2019-03-06T04:58:33.358Z,0.00
2019-03-06T04:59:33.353Z,0.00
2019-03-06T05:00:33.349Z,0.00
2019-03-06T05:01:33.321Z,0.00
2019-03-06T05:02:33.319Z,0.00
2019-03-06T05:03:33.293Z,0.00
2019-03-06T05:04:33.295Z,0.00
2019-03-06T05:05:33.283Z,0.00
2019-03-06T05:06:33.275Z,0.00
2019-03-06T05:07:33.255Z,0.00
2019-03-06T05:08:33.249Z,0.00
2019-03-06T05:09:33.235Z,0.00
2019-03-06T05:10:33.231Z,0.00
2019-03-06T05:11:33.279Z,0.00
2019-03-06T05:12:33.195Z,0.00
2019-03-06T05:13:33.235Z,0.00
2019-03-06T05:14:33.183Z,0.00
2019-03-06T05:15:33.178Z,0.00
2019-03-06T05:16:33.171Z,0.00
2019-03-06T05:17:33.151Z,0.00
2019-03-06T05:18:33.142Z,0.00
2019-03-06T05:19:33.134Z,4.00
2019-03-06T05:20:33.125Z,0.00
2019-03-06T05:21:33.115Z,0.00
2019-03-06T05:22:33.097Z,4.00
2019-03-06T05:23:33.141Z,4.00
2019-03-06T05:24:33.087Z,4.00
2019-03-06T05:25:33.062Z,4.00
2019-03-06T05:26:33.052Z,4.00
2019-03-06T05:27:33.045Z,4.00
2019-03-06T05:28:33.057Z,8.00
2019-03-06T05:29:33.018Z,8.00
2019-03-06T05:30:33.006Z,12.00
2019-03-06T05:31:32.995Z,8.00
2019-03-06T05:32:32.994Z,12.00
2019-03-06T05:33:32.988Z,12.00
2019-03-06T05:34:32.975Z,16.00
2019-03-06T05:35:32.955Z,20.00
2019-03-06T05:36:32.947Z,20.00
2019-03-06T05:37:32.940Z,24.00
2019-03-06T05:38:32.958Z,28.00
2019-03-06T05:39:32.938Z,28.00
2019-03-06T05:40:32.937Z,32.00
2019-03-06T05:41:32.972Z,36.00
2019-03-06T05:42:32.871Z,40.00
2019-03-06T05:43:32.879Z,40.00
2019-03-06T05:44:32.856Z,48.00
2019-03-06T05:45:32.852Z,52.00
2019-03-06T05:46:32.842Z,56.00
2019-03-06T05:47:32.906Z,60.00
2019-03-06T05:48:32.817Z,64.00
2019-03-06T05:49:32.810Z,72.00
2019-03-06T05:50:32.794Z,80.00
2019-03-06T05:51:32.785Z,88.00
2019-03-06T05:52:32.777Z,96.00
2019-03-06T05:53:32.766Z,104.00
2019-03-06T05:54:32.748Z,112.00
2019-03-06T05:55:32.750Z,128.00
2019-03-06T05:56:32.738Z,136.00
2019-03-06T05:57:32.735Z,144.00
2019-03-06T05:58:32.703Z,160.00
2019-03-06T05:59:32.694Z,168.00
2019-03-06T06:00:32.702Z,184.00
2019-03-06T06:01:32.672Z,192.00
2019-03-06T06:02:32.673Z,208.00
2019-03-06T06:03:32.664Z,220.00
2019-03-06T06:04:32.649Z,236.00
2019-03-06T06:05:32.627Z,252.00
2019-03-06T06:06:32.629Z,272.00
2019-03-06T06:07:32.609Z,292.00
2019-03-06T06:08:32.615Z,312.00
2019-03-06T06:09:32.586Z,336.00
2019-03-06T06:10:32.578Z,356.00
2019-03-06T06:11:32.564Z,376.00
2019-03-06T06:12:32.578Z,388.00
2019-03-06T06:13:32.549Z,404.00
2019-03-06T06:14:32.543Z,404.00
2019-03-06T06:15:32.525Z,404.00
2019-03-06T06:16:32.517Z,404.00
2019-03-06T06:17:32.508Z,400.00
2019-03-06T06:18:32.494Z,404.00
2019-03-06T06:19:32.485Z,408.00
2019-03-06T06:20:32.472Z,408.00
2019-03-06T06:21:32.512Z,416.00
2019-03-06T06:22:32.447Z,416.00
2019-03-06T06:23:32.434Z,412.00
2019-03-06T06:24:32.426Z,404.00
2019-03-06T06:25:32.416Z,400.00
2019-03-06T06:26:32.440Z,400.00
2019-03-06T06:27:32.387Z,396.00
2019-03-06T06:28:32.379Z,392.00
2019-03-06T06:29:32.376Z,396.00
2019-03-06T06:30:32.472Z,396.00
2019-03-06T06:31:32.368Z,400.00
2019-03-06T06:32:33.034Z,408.00
2019-03-06T06:33:32.328Z,420.00
2019-03-06T06:34:32.325Z,424.00
2019-03-06T06:35:32.301Z,432.00
2019-03-06T06:36:32.296Z,444.00
2019-03-06T06:37:32.315Z,464.00
2019-03-06T06:38:32.277Z,480.00
2019-03-06T06:39:32.265Z,496.00
2019-03-06T06:40:32.265Z,524.00
2019-03-06T06:41:32.246Z,572.00
2019-03-06T06:42:32.235Z,624.00
2019-03-06T06:43:32.234Z,664.00
2019-03-06T06:44:32.213Z,696.00
2019-03-06T06:45:32.213Z,728.00
2019-03-06T06:46:32.191Z,768.00
2019-03-06T06:47:32.191Z,804.00
2019-03-06T06:48:32.185Z,828.00
2019-03-06T06:49:32.155Z,840.00
2019-03-06T06:50:32.198Z,836.00
2019-03-06T06:51:32.150Z,820.00
2019-03-06T06:52:32.125Z,796.00
2019-03-06T06:53:32.116Z,832.00
2019-03-06T06:54:32.119Z,880.00
2019-03-06T06:55:32.124Z,880.00
2019-03-06T06:56:32.100Z,888.00
2019-03-06T06:57:32.079Z,908.00
2019-03-06T06:58:32.068Z,916.00
2019-03-06T06:59:32.063Z,920.00
2019-03-06T07:00:32.049Z,932.00
2019-03-06T07:01:32.030Z,944.00
2019-03-06T07:02:32.115Z,952.00
2019-03-06T07:03:32.013Z,968.00
2019-03-06T07:04:32.003Z,976.00
2019-03-06T07:05:31.988Z,996.00
2019-03-06T07:06:31.989Z,1028.00
2019-03-06T07:07:31.972Z,1060.00
2019-03-06T07:08:31.956Z,1092.00
2019-03-06T07:09:31.957Z,1108.00
2019-03-06T07:10:31.935Z,1116.00
2019-03-06T07:11:31.926Z,1120.00
2019-03-06T07:12:31.950Z,1128.00
2019-03-06T07:13:31.916Z,1128.00
2019-03-06T07:14:31.889Z,1124.00
2019-03-06T07:15:31.886Z,1120.00
2019-03-06T07:16:31.872Z,1112.00
2019-03-06T07:17:31.862Z,1104.00
2019-03-06T07:18:31.862Z,1108.00
2019-03-06T07:19:31.849Z,1120.00
2019-03-06T07:20:31.827Z,1152.00
2019-03-06T07:21:31.824Z,1156.00
2019-03-06T07:22:31.816Z,1176.00
2019-03-06T07:23:31.801Z,1200.00
2019-03-06T07:24:31.787Z,1212.00
2019-03-06T07:25:31.783Z,1208.00
2019-03-06T07:26:31.757Z,1204.00
2019-03-06T07:27:31.759Z,1216.00
2019-03-06T07:28:31.775Z,1212.00
2019-03-06T07:29:31.735Z,1228.00
2019-03-06T07:30:31.723Z,1224.00
2019-03-06T07:31:31.760Z,1236.00
2019-03-06T07:32:31.726Z,1208.00
2019-03-06T07:33:31.684Z,1252.00
2019-03-06T07:34:31.708Z,1268.00
2019-03-06T07:35:31.710Z,1296.00
2019-03-06T07:36:31.659Z,1316.00
2019-03-06T07:37:31.643Z,1344.00
2019-03-06T07:38:31.658Z,1364.00
2019-03-06T07:39:32.237Z,1396.00
2019-03-06T07:40:31.624Z,1428.00
2019-03-06T07:41:31.618Z,1448.00
2019-03-06T07:42:31.592Z,1448.00
2019-03-06T07:43:31.654Z,1456.00
2019-03-06T07:44:31.565Z,1460.00
2019-03-06T07:45:31.569Z,1476.00
2019-03-06T07:46:31.572Z,1480.00
2019-03-06T07:47:31.532Z,1484.00
2019-03-06T07:48:31.525Z,1484.00
2019-03-06T07:49:31.606Z,1480.00
2019-03-06T07:50:31.507Z,1476.00
2019-03-06T07:51:32.001Z,1488.00
2019-03-06T07:52:31.507Z,1456.00
2019-03-06T07:53:31.523Z,1460.00
2019-03-06T07:54:31.457Z,1456.00
2019-03-06T07:55:31.457Z,1492.00
2019-03-06T07:56:31.496Z,1460.00
2019-03-06T07:57:31.443Z,1460.00
2019-03-06T07:58:31.412Z,1396.00
2019-03-06T07:59:31.493Z,1408.00
2019-03-06T08:00:31.387Z,1304.00
2019-03-06T08:01:31.409Z,1396.00
2019-03-06T08:02:31.492Z,1448.00
2019-03-06T08:03:31.376Z,1540.00
2019-03-06T08:04:31.348Z,1552.00
2019-03-06T08:05:31.414Z,1540.00
2019-03-06T08:06:31.438Z,1576.00
2019-03-06T08:07:31.311Z,1580.00
2019-03-06T08:08:31.308Z,1568.00
2019-03-06T08:09:31.327Z,1624.00
2019-03-06T08:10:31.276Z,1628.00
2019-03-06T08:11:31.286Z,1644.00
2019-03-06T08:12:31.258Z,1636.00
2019-03-06T08:13:31.260Z,1648.00
2019-03-06T08:14:31.245Z,1672.00
2019-03-06T08:15:31.227Z,1696.00
2019-03-06T08:16:31.211Z,1668.00
2019-03-06T08:17:31.203Z,1652.00
2019-03-06T08:18:31.196Z,1636.00
2019-03-06T08:19:31.187Z,1612.00
2019-03-06T08:20:31.219Z,1620.00
2019-03-06T08:21:31.155Z,1620.00
2019-03-06T08:22:31.149Z,1596.00
2019-03-06T08:23:31.145Z,1628.00
2019-03-06T08:24:31.267Z,1636.00
2019-03-06T08:25:31.126Z,1624.00
2019-03-06T08:26:31.102Z,1668.00
2019-03-06T08:27:31.082Z,1680.00
2019-03-06T08:28:31.083Z,1680.00
2019-03-06T08:29:31.065Z,1668.00
2019-03-06T08:30:31.057Z,1704.00
2019-03-06T08:31:31.060Z,1700.00
2019-03-06T08:32:31.036Z,1704.00
2019-03-06T08:33:31.022Z,1704.00
2019-03-06T08:34:31.008Z,1716.00
2019-03-06T08:35:31.002Z,1708.00
2019-03-06T08:36:31.043Z,1752.00
2019-03-06T08:37:31.013Z,1776.00
2019-03-06T08:38:31.013Z,1864.00
2019-03-06T08:39:30.954Z,2024.00
2019-03-06T08:40:31.014Z,2208.00
2019-03-06T08:41:30.930Z,2408.00
2019-03-06T08:42:32.561Z,2524.00
2019-03-06T08:43:30.955Z,2632.00
2019-03-06T08:44:30.908Z,2616.00
2019-03-06T08:45:30.900Z,2604.00
2019-03-06T08:46:30.878Z,2744.00
2019-03-06T08:47:30.878Z,3164.00
2019-03-06T08:48:30.869Z,3548.00
2019-03-06T08:49:30.891Z,4116.00
2019-03-06T08:50:30.887Z,4388.00
2019-03-06T08:51:30.822Z,4396.00
2019-03-06T08:52:30.814Z,4564.00
2019-03-06T08:53:30.894Z,4500.00
2019-03-06T08:54:30.807Z,4736.00
2019-03-06T08:55:30.821Z,4580.00
2019-03-06T08:56:30.862Z,4248.00
2019-03-06T08:57:30.769Z,4152.00
2019-03-06T08:58:30.754Z,4112.00
2019-03-06T08:59:30.751Z,3772.00
2019-03-06T09:00:30.834Z,3696.00
2019-03-06T09:01:30.712Z,3716.00
2019-03-06T09:02:30.700Z,3992.00
2019-03-06T09:03:30.725Z,4300.00
2019-03-06T09:04:30.695Z,4780.00
2019-03-06T09:05:31.105Z,4820.00
2019-03-06T09:06:30.673Z,4780.00
2019-03-06T09:07:32.141Z,4224.00
2019-03-06T09:08:30.643Z,3988.00
2019-03-06T09:09:30.627Z,3888.00
2019-03-06T09:10:30.660Z,3692.00
2019-03-06T09:11:30.627Z,3476.00
2019-03-06T09:12:30.625Z,3364.00
2019-03-06T09:13:30.590Z,3336.00
2019-03-06T09:14:30.649Z,3028.00
2019-03-06T09:15:30.558Z,2744.00
2019-03-06T09:16:30.599Z,2580.00
2019-03-06T09:17:30.540Z,2592.00
2019-03-06T09:18:30.543Z,2632.00
2019-03-06T09:19:30.522Z,2716.00
2019-03-06T09:20:36.115Z,2852.00
2019-03-06T09:21:31.501Z,3000.00
2019-03-06T09:22:30.545Z,3104.00
2019-03-06T09:23:30.479Z,3076.00
2019-03-06T09:24:30.465Z,3000.00
2019-03-06T09:25:30.452Z,3012.00
2019-03-06T09:26:30.494Z,3020.00
2019-03-06T09:27:30.492Z,3108.00
2019-03-06T09:28:30.416Z,3160.00
2019-03-06T09:29:30.417Z,3204.00
2019-03-06T09:30:30.401Z,3292.00
2019-03-06T09:31:30.390Z,3304.00
2019-03-06T09:32:30.375Z,3236.00
2019-03-06T09:33:30.448Z,3140.00
2019-03-06T09:34:30.371Z,3076.00
2019-03-06T09:35:30.353Z,3060.00
2019-03-06T09:36:30.353Z,3048.00
2019-03-06T09:37:30.327Z,2972.00
2019-03-06T09:38:30.333Z,2968.00
2019-03-06T09:39:30.346Z,3016.00
2019-03-06T09:40:30.395Z,3112.00
2019-03-06T09:41:30.434Z,3116.00
2019-03-06T09:42:30.304Z,3132.00
2019-03-06T09:43:30.260Z,3084.00
2019-03-06T09:44:30.292Z,3044.00
2019-03-06T09:45:30.228Z,3036.00
2019-03-06T09:46:30.223Z,3036.00
2019-03-06T09:47:30.225Z,3056.00
2019-03-06T09:48:30.211Z,3080.00
2019-03-06T09:49:30.187Z,3104.00
2019-03-06T09:50:30.233Z,3108.00
2019-03-06T09:51:30.169Z,3056.00
2019-03-06T09:52:30.171Z,2992.00
2019-03-06T09:53:30.158Z,3000.00
2019-03-06T09:54:30.131Z,2928.00
2019-03-06T09:55:30.126Z,2868.00
2019-03-06T09:56:30.122Z,2876.00
2019-03-06T09:57:30.131Z,2856.00
2019-03-06T09:58:30.086Z,2880.00
2019-03-06T09:59:30.148Z,3024.00
2019-03-06T10:00:30.106Z,3120.00
2019-03-06T10:01:30.259Z,3100.00
2019-03-06T10:02:30.054Z,3184.00
2019-03-06T10:03:30.243Z,3208.00
2019-03-06T10:04:30.049Z,3220.00
2019-03-06T10:05:30.027Z,3144.00
2019-03-06T10:06:30.047Z,3288.00
2019-03-06T10:07:30.010Z,3296.00
2019-03-06T10:08:30.010Z,3332.00
2019-03-06T10:09:29.972Z,3484.00
2019-03-06T10:10:29.976Z,3556.00
2019-03-06T10:11:29.957Z,3588.00
2019-03-06T10:12:30.004Z,3676.00
2019-03-06T10:13:30.030Z,3676.00
2019-03-06T10:14:29.912Z,3428.00
2019-03-06T10:15:29.905Z,3536.00
2019-03-06T10:16:29.906Z,3524.00
2019-03-06T10:17:30.317Z,3516.00
2019-03-06T10:18:29.870Z,3472.00
2019-03-06T10:19:29.867Z,3388.00
2019-03-06T10:20:29.857Z,3360.00
2019-03-06T10:21:29.846Z,3464.00
2019-03-06T10:22:29.840Z,3528.00
2019-03-06T10:23:29.809Z,3580.00
2019-03-06T10:24:29.810Z,3620.00
2019-03-06T10:25:31.324Z,3632.00
2019-03-06T10:26:29.787Z,3608.00
2019-03-06T10:27:29.865Z,3572.00
2019-03-06T10:28:29.855Z,3496.00
2019-03-06T10:29:29.840Z,3436.00
2019-03-06T10:30:29.754Z,3456.00
2019-03-06T10:31:29.725Z,3400.00
2019-03-06T10:32:29.723Z,3360.00
2019-03-06T10:33:29.723Z,3112.00
2019-03-06T10:34:29.702Z,3284.00
2019-03-06T10:35:29.686Z,3356.00
2019-03-06T10:36:29.695Z,3356.00
2019-03-06T10:37:29.920Z,3368.00
2019-03-06T10:38:29.647Z,3196.00
2019-03-06T10:39:29.652Z,3260.00
2019-03-06T10:40:29.633Z,3392.00
2019-03-06T10:41:29.634Z,3436.00
2019-03-06T10:42:29.609Z,3332.00
2019-03-06T10:43:29.599Z,3312.00
2019-03-06T10:44:30.089Z,3300.00
2019-03-06T10:45:30.191Z,3300.00
2019-03-06T10:46:29.585Z,3348.00
2019-03-06T10:47:29.574Z,3380.00
2019-03-06T10:48:29.546Z,3296.00
2019-03-06T10:49:29.536Z,3292.00
2019-03-06T10:50:31.283Z,3288.00
2019-03-06T10:51:31.042Z,3380.00
2019-03-06T10:52:29.496Z,3420.00
2019-03-06T10:53:29.476Z,3340.00
2019-03-06T10:54:29.463Z,3404.00
2019-03-06T10:55:29.468Z,3448.00
2019-03-06T10:56:29.467Z,3472.00
2019-03-06T10:57:29.436Z,3416.00
2019-03-06T10:58:29.459Z,3364.00
2019-03-06T10:59:29.434Z,3364.00
2019-03-06T11:00:29.398Z,3312.00
2019-03-06T11:01:29.405Z,3296.00
2019-03-06T11:02:29.374Z,3364.00
2019-03-06T11:03:29.378Z,3356.00
2019-03-06T11:04:29.379Z,3328.00
2019-03-06T11:05:29.344Z,3336.00
2019-03-06T11:06:29.339Z,3332.00
2019-03-06T11:07:29.337Z,3372.00
2019-03-06T11:08:29.318Z,3352.00
2019-03-06T11:09:29.313Z,3380.00
2019-03-06T11:10:29.290Z,3348.00
2019-03-06T11:11:29.349Z,3316.00
2019-03-06T11:12:29.475Z,3332.00
2019-03-06T11:13:29.275Z,3376.00
2019-03-06T11:14:29.268Z,3412.00
2019-03-06T11:15:29.261Z,3460.00
2019-03-06T11:16:30.132Z,3516.00
2019-03-06T11:17:29.213Z,3508.00
2019-03-06T11:18:29.208Z,3520.00
2019-03-06T11:19:29.262Z,3528.00
2019-03-06T11:20:29.191Z,3436.00
2019-03-06T11:21:29.197Z,3420.00
2019-03-06T11:22:29.157Z,3416.00
2019-03-06T11:23:29.239Z,3356.00
2019-03-06T11:24:29.331Z,3292.00
2019-03-06T11:25:29.122Z,3236.00
2019-03-06T11:26:29.128Z,3260.00
2019-03-06T11:27:29.131Z,3276.00
2019-03-06T11:28:29.086Z,3244.00
2019-03-06T11:29:29.093Z,3268.00
2019-03-06T11:30:29.068Z,3296.00
2019-03-06T11:31:29.171Z,3200.00
2019-03-06T11:32:29.067Z,3104.00
2019-03-06T11:33:29.036Z,3076.00
2019-03-06T11:34:29.031Z,3200.00
2019-03-06T11:35:29.024Z,3256.00
2019-03-06T11:36:29.010Z,3336.00
2019-03-06T11:37:29.001Z,3368.00
2019-03-06T11:38:29.018Z,3440.00
2019-03-06T11:39:28.968Z,3440.00
2019-03-06T11:40:28.960Z,3412.00
2019-03-06T11:41:28.948Z,3448.00
2019-03-06T11:42:28.937Z,3432.00
2019-03-06T11:43:28.930Z,3372.00
2019-03-06T11:44:28.930Z,3364.00
2019-03-06T11:45:28.972Z,3412.00
2019-03-06T11:46:28.897Z,3496.00
2019-03-06T11:47:28.902Z,3484.00
2019-03-06T11:48:28.871Z,3428.00
2019-03-06T11:49:28.869Z,3352.00
2019-03-06T11:50:28.856Z,3296.00
2019-03-06T11:51:28.842Z,3240.00
2019-03-06T11:52:28.841Z,3208.00
2019-03-06T11:53:28.842Z,3160.00
2019-03-06T11:54:28.813Z,3120.00
2019-03-06T11:55:28.807Z,3108.00
2019-03-06T11:56:28.775Z,3064.00
2019-03-06T11:57:28.827Z,3120.00
2019-03-06T11:58:28.759Z,3188.00
2019-03-06T11:59:28.747Z,3248.00
2019-03-06T12:00:28.739Z,3292.00
2019-03-06T12:01:28.744Z,3396.00
2019-03-06T12:02:28.751Z,3428.00
2019-03-06T12:03:28.714Z,3412.00
2019-03-06T12:04:28.721Z,3356.00
2019-03-06T12:05:28.777Z,3256.00
2019-03-06T12:06:28.678Z,3088.00
2019-03-06T12:07:28.676Z,3056.00
2019-03-06T12:08:28.651Z,3092.00
2019-03-06T12:09:28.654Z,3128.00
2019-03-06T12:10:28.625Z,3216.00
2019-03-06T12:11:28.615Z,3328.00
2019-03-06T12:12:28.605Z,3372.00
2019-03-06T12:13:28.604Z,3260.00
2019-03-06T12:14:28.582Z,3140.00
2019-03-06T12:15:28.585Z,3084.00
2019-03-06T12:16:28.562Z,2972.00
2019-03-06T12:17:28.593Z,2872.00
2019-03-06T12:18:28.536Z,2740.00
2019-03-06T12:19:28.533Z,2676.00
2019-03-06T12:20:28.515Z,2508.00
2019-03-06T12:21:28.510Z,2428.00
2019-03-06T12:22:28.504Z,2412.00
2019-03-06T12:23:28.489Z,2472.00
2019-03-06T12:24:28.478Z,2588.00
2019-03-06T12:25:28.508Z,2652.00
2019-03-06T12:26:28.474Z,2732.00
2019-03-06T12:27:28.447Z,2696.00
2019-03-06T12:28:28.449Z,2632.00
2019-03-06T12:29:28.431Z,2672.00
2019-03-06T12:30:28.426Z,2724.00
2019-03-06T12:31:28.398Z,2824.00
2019-03-06T12:32:28.473Z,2740.00
2019-03-06T12:33:28.375Z,2676.00
2019-03-06T12:34:28.411Z,2568.00
2019-03-06T12:35:28.385Z,2576.00
2019-03-06T12:36:28.348Z,2372.00
2019-03-06T12:37:28.356Z,2436.00
2019-03-06T12:38:28.397Z,2464.00
2019-03-06T12:39:28.310Z,2476.00
2019-03-06T12:40:28.304Z,2580.00